createdAt,value
2019-02-08T00:00:29.199Z,0.60
2019-02-08T00:03:01.255Z,0.60
2019-02-08T00:05:33.356Z,0.50
2019-02-08T00:08:05.626Z,0.40
2019-02-08T00:10:37.761Z,0.40
2019-02-08T00:13:09.877Z,0.40
2019-02-08T00:15:42.277Z,0.50
2019-02-08T00:18:15.043Z,0.40
2019-02-08T00:20:47.238Z,0.40
2019-02-08T00:23:26.719Z,0.40
2019-02-08T00:25:53.121Z,0.50
2019-02-08T00:28:25.188Z,0.50
2019-02-08T00:30:57.301Z,0.50
2019-02-08T00:33:29.366Z,0.60
2019-02-08T00:36:01.462Z,0.60
2019-02-08T00:38:33.531Z,0.60
2019-02-08T00:41:05.766Z,0.70
2019-02-08T00:43:37.826Z,0.70
2019-02-08T00:46:10.033Z,0.70
2019-02-08T00:48:42.096Z,0.70
2019-02-08T00:51:14.192Z,0.60
2019-02-08T00:53:46.252Z,0.60
2019-02-08T00:56:18.352Z,0.60
2019-02-08T00:58:50.408Z,0.60
2019-02-08T01:01:22.501Z,0.70
2019-02-08T01:03:54.559Z,0.70
2019-02-08T01:06:26.668Z,0.80
2019-02-08T01:08:58.730Z,0.80
2019-02-08T01:11:30.825Z,0.90
2019-02-08T01:14:02.876Z,0.90
2019-02-08T01:16:34.970Z,1.00
2019-02-08T01:19:07.524Z,1.00
2019-02-08T01:21:39.829Z,1.00
2019-02-08T01:24:11.888Z,1.00
2019-02-08T01:26:43.979Z,1.10
2019-02-08T01:29:15.956Z,1.10
2019-02-08T01:31:47.970Z,1.10
2019-02-08T01:34:20.027Z,1.10
2019-02-08T01:36:52.048Z,1.00
2019-02-08T01:39:24.147Z,1.00
2019-02-08T01:41:56.459Z,0.90
2019-02-08T01:44:28.557Z,0.90
2019-02-08T01:47:00.672Z,0.80
2019-02-08T01:49:32.657Z,0.70
2019-02-08T01:52:04.848Z,0.70
2019-02-08T01:54:36.830Z,0.60
2019-02-08T01:57:08.921Z,0.60
2019-02-08T01:59:40.998Z,0.60
2019-02-08T02:02:13.097Z,0.50
2019-02-08T02:04:45.188Z,0.50
2019-02-08T02:07:17.318Z,0.50
2019-02-08T02:09:49.699Z,0.50
2019-02-08T02:12:21.732Z,0.60
2019-02-08T02:14:56.452Z,0.50
2019-02-08T02:17:28.477Z,0.40
2019-02-08T02:20:00.772Z,0.40
2019-02-08T02:22:32.867Z,0.30
2019-02-08T02:25:08.046Z,0.30
2019-02-08T02:27:40.145Z,0.20
2019-02-08T02:30:16.843Z,0.30
2019-02-08T02:32:49.051Z,0.20
2019-02-08T02:35:21.178Z,0.20
2019-02-08T02:37:53.155Z,0.20
2019-02-08T02:40:25.412Z,0.20
2019-02-08T02:42:57.638Z,0.30
2019-02-08T02:45:33.560Z,0.30
2019-02-08T02:48:07.451Z,0.40
2019-02-08T02:50:39.523Z,0.50
2019-02-08T02:53:12.114Z,0.50
2019-02-08T02:55:44.149Z,0.60
2019-02-08T02:58:16.132Z,0.70
2019-02-08T03:00:49.678Z,0.80
2019-02-08T03:03:21.705Z,0.90
2019-02-08T03:05:53.605Z,0.90
2019-02-08T03:08:25.550Z,1.00
2019-02-08T03:10:57.619Z,1.00
2019-02-08T03:13:29.723Z,1.10
2019-02-08T03:16:01.825Z,1.10
2019-02-08T03:18:33.932Z,1.10
2019-02-08T03:21:06.126Z,1.10
2019-02-08T03:23:38.158Z,0.90
2019-02-08T03:26:10.453Z,0.80
2019-02-08T03:28:42.479Z,0.70
2019-02-08T03:31:14.499Z,0.60
2019-02-08T03:33:46.482Z,0.60
2019-02-08T03:36:18.431Z,0.60
2019-02-08T03:38:50.493Z,0.60
2019-02-08T03:41:22.815Z,0.70
2019-02-08T03:43:54.763Z,0.70
2019-02-08T03:46:26.817Z,0.70
2019-02-08T03:48:59.029Z,0.70
2019-02-08T03:51:31.061Z,0.80
2019-02-08T03:54:03.177Z,0.80
2019-02-08T03:56:35.067Z,0.80
2019-02-08T03:59:07.471Z,0.90
2019-02-08T04:01:39.491Z,1.00
2019-02-08T04:04:17.602Z,-0.30
2019-02-08T04:06:49.572Z,1.00
2019-02-08T04:09:21.670Z,1.00
2019-02-08T04:11:53.711Z,1.00
2019-02-08T04:14:25.655Z,1.10
2019-02-08T04:16:57.714Z,1.10
2019-02-08T04:19:29.798Z,1.20
2019-02-08T04:22:01.732Z,1.20
2019-02-08T04:24:33.686Z,1.20
2019-02-08T04:27:05.621Z,1.20
2019-02-08T04:29:39.012Z,1.20
2019-02-08T04:32:10.963Z,1.20
2019-02-08T04:34:42.907Z,1.20
2019-02-08T04:37:14.841Z,1.20
2019-02-08T04:39:46.909Z,1.30
2019-02-08T04:42:18.968Z,1.30
2019-02-08T04:44:51.175Z,1.40
2019-02-08T04:47:23.197Z,1.40
2019-02-08T04:49:55.341Z,1.40
2019-02-08T04:52:27.272Z,1.50
2019-02-08T04:54:59.339Z,1.50
2019-02-08T04:57:31.279Z,1.50
2019-02-08T05:00:03.329Z,1.50
2019-02-08T05:02:35.265Z,1.50
2019-02-08T05:05:08.296Z,1.50
2019-02-08T05:07:40.220Z,1.50
2019-02-08T05:10:14.361Z,1.50
2019-02-08T05:12:46.402Z,1.50
2019-02-08T05:15:19.553Z,1.50
2019-02-08T05:17:51.786Z,1.60
2019-02-08T05:20:26.750Z,1.60
2019-02-08T05:22:58.847Z,1.70
2019-02-08T05:25:31.372Z,1.80
2019-02-08T05:28:03.502Z,1.80
2019-02-08T05:30:37.259Z,1.80
2019-02-08T05:33:09.355Z,1.80
2019-02-08T05:35:41.378Z,1.70
2019-02-08T05:38:13.503Z,1.70
2019-02-08T05:40:45.600Z,1.70
2019-02-08T05:43:17.630Z,1.70
2019-02-08T05:45:49.774Z,1.70
2019-02-08T05:48:21.859Z,1.70
2019-02-08T05:50:53.951Z,1.70
2019-02-08T05:53:26.005Z,1.70
2019-02-08T05:55:58.105Z,1.70
2019-02-08T05:58:30.134Z,1.70
2019-02-08T06:01:02.236Z,1.80
2019-02-08T06:03:34.422Z,1.70
2019-02-08T06:06:07.096Z,1.70
2019-02-08T06:08:39.203Z,1.70
2019-02-08T06:11:11.308Z,1.70
2019-02-08T06:13:43.495Z,1.80
2019-02-08T06:16:15.570Z,1.80
2019-02-08T06:18:47.624Z,1.80
2019-02-08T06:21:19.719Z,1.80
2019-02-08T06:23:51.646Z,1.80
2019-02-08T06:26:23.724Z,1.80
2019-02-08T06:29:03.265Z,1.80
2019-02-08T06:31:35.328Z,1.70
2019-02-08T06:34:07.537Z,1.70
2019-02-08T06:36:39.560Z,1.70
2019-02-08T06:39:12.080Z,1.70
2019-02-08T06:41:44.103Z,1.70
2019-02-08T06:44:16.726Z,1.70
2019-02-08T06:46:48.641Z,1.70
2019-02-08T06:49:20.580Z,1.70
2019-02-08T06:51:52.535Z,1.70
2019-02-08T06:54:24.475Z,1.70
2019-02-08T06:57:08.425Z,1.70
2019-02-08T06:59:55.564Z,1.70
2019-02-08T07:02:46.336Z,1.80
2019-02-08T07:05:25.731Z,1.80
2019-02-08T07:08:25.456Z,1.90
2019-02-08T07:11:09.480Z,1.90
2019-02-08T07:14:00.509Z,2.00
2019-02-08T07:16:51.272Z,2.00
2019-02-08T07:19:36.307Z,2.00
2019-02-08T07:22:18.981Z,2.10
2019-02-08T07:25:02.814Z,2.10
2019-02-08T07:27:43.167Z,2.20
2019-02-08T07:30:44.169Z,2.30
2019-02-08T07:33:44.979Z,2.30
2019-02-08T07:36:28.547Z,2.30
2019-02-08T07:39:16.231Z,2.30
2019-02-08T07:42:11.074Z,2.40
2019-02-08T07:45:01.789Z,2.30
2019-02-08T07:47:47.743Z,2.30
2019-02-08T07:50:38.001Z,2.30
2019-02-08T07:53:47.173Z,2.30
2019-02-08T07:56:40.174Z,2.30
2019-02-08T07:59:27.551Z,2.30
2019-02-08T08:02:30.700Z,2.40
2019-02-08T08:05:13.321Z,2.40
2019-02-08T08:08:13.708Z,2.40
2019-02-08T08:10:53.799Z,2.40
2019-02-08T08:13:37.566Z,2.50
2019-02-08T08:16:20.911Z,2.70
2019-02-08T08:19:15.980Z,2.90
2019-02-08T08:22:08.901Z,3.00
2019-02-08T08:24:55.961Z,3.40
2019-02-08T08:27:42.992Z,3.80
2019-02-08T08:30:42.247Z,5.30
2019-02-08T08:33:34.092Z,8.80
2019-02-08T08:37:01.868Z,11.70
2019-02-08T08:40:49.500Z,13.70
2019-02-08T08:44:10.465Z,15.70
2019-02-08T08:47:46.890Z,16.70
2019-02-08T08:51:08.493Z,16.70
2019-02-08T08:54:48.892Z,17.80
2019-02-08T08:58:23.159Z,19.40
2019-02-08T09:02:08.661Z,19.30
2019-02-08T09:05:11.649Z,18.70
2019-02-08T09:08:38.935Z,17.90
2019-02-08T09:11:57.692Z,16.40
2019-02-08T09:15:14.890Z,16.30
2019-02-08T09:18:57.026Z,16.60
2019-02-08T09:22:26.104Z,17.20
2019-02-08T09:25:50.088Z,17.60
2019-02-08T09:28:55.743Z,17.50
2019-02-08T09:33:00.188Z,17.30
2019-02-08T09:36:32.720Z,17.20
2019-02-08T09:39:46.597Z,17.00
2019-02-08T09:43:13.254Z,16.40
2019-02-08T09:46:43.831Z,15.20
2019-02-08T09:50:06.198Z,13.70
2019-02-08T09:53:39.565Z,14.00
2019-02-08T09:57:12.658Z,13.60
2019-02-08T10:00:30.674Z,13.80
2019-02-08T10:03:56.817Z,13.40
2019-02-08T10:07:10.483Z,13.40
2019-02-08T10:10:37.816Z,13.40
2019-02-08T10:14:21.148Z,13.70
2019-02-08T10:17:51.611Z,13.70
2019-02-08T10:21:35.414Z,13.20
2019-02-08T10:24:38.921Z,13.00
2019-02-08T10:28:06.340Z,12.90
2019-02-08T10:31:41.179Z,12.90
2019-02-08T10:35:07.283Z,12.90
2019-02-08T10:38:55.520Z,12.70
2019-02-08T10:42:38.986Z,12.60
2019-02-08T10:46:03.758Z,12.40
2019-02-08T10:49:41.277Z,12.90
2019-02-08T10:53:55.163Z,12.90
2019-02-08T10:57:25.328Z,13.30
2019-02-08T11:00:58.117Z,13.30
2019-02-08T11:04:35.884Z,13.20
2019-02-08T11:08:28.644Z,13.00
2019-02-08T11:12:00.437Z,12.70
2019-02-08T11:15:23.863Z,13.30
2019-02-08T11:18:50.023Z,13.70
2019-02-08T11:21:22.127Z,13.60
2019-02-08T11:23:54.296Z,13.30
2019-02-08T11:26:26.624Z,13.40
2019-02-08T11:28:58.611Z,13.90
2019-02-08T11:31:30.755Z,14.20
2019-02-08T11:34:02.921Z,14.20
2019-02-08T11:36:35.850Z,14.60
2019-02-08T11:39:17.335Z,14.90
2019-02-08T11:41:51.111Z,14.90
2019-02-08T11:44:24.429Z,15.00
2019-02-08T11:46:56.552Z,15.50
2019-02-08T11:49:28.539Z,15.90
2019-02-08T11:52:00.570Z,16.70
2019-02-08T11:54:33.464Z,17.50
2019-02-08T11:57:05.967Z,18.40
2019-02-08T11:59:38.323Z,18.80
2019-02-08T12:02:10.523Z,18.80
2019-02-08T12:04:45.708Z,19.30
2019-02-08T12:07:17.739Z,19.90
2019-02-08T12:09:49.798Z,19.90
2019-02-08T12:12:21.895Z,19.70
2019-02-08T12:14:53.942Z,19.60
2019-02-08T12:17:25.966Z,18.80
2019-02-08T12:19:58.224Z,18.70
2019-02-08T12:22:30.334Z,19.00
2019-02-08T12:25:02.322Z,18.80
2019-02-08T12:27:34.350Z,19.30
2019-02-08T12:30:12.057Z,19.10
2019-02-08T12:32:44.083Z,19.30
2019-02-08T12:35:16.276Z,19.70
2019-02-08T12:37:48.674Z,19.90
2019-02-08T12:40:20.770Z,20.60
2019-02-08T12:42:52.827Z,19.30
2019-02-08T12:45:25.151Z,17.80
2019-02-08T12:47:57.266Z,17.20
2019-02-08T12:50:29.620Z,17.60
2019-02-08T12:53:01.746Z,17.50
2019-02-08T12:55:33.809Z,18.20
2019-02-08T12:58:05.907Z,19.10
2019-02-08T13:00:37.969Z,20.00
2019-02-08T13:03:10.098Z,19.40
2019-02-08T13:05:42.502Z,19.30
2019-02-08T13:08:14.632Z,18.40
2019-02-08T13:10:46.812Z,18.20
2019-02-08T13:13:18.833Z,18.40
2019-02-08T13:15:51.901Z,18.20
2019-02-08T13:18:25.125Z,18.80
2019-02-08T13:20:57.182Z,18.80
2019-02-08T13:23:29.288Z,19.30
2019-02-08T13:26:01.472Z,19.40
2019-02-08T13:28:33.575Z,19.10
2019-02-08T13:31:05.654Z,18.90
2019-02-08T13:33:37.854Z,18.70
2019-02-08T13:36:15.751Z,19.00
2019-02-08T13:38:48.086Z,18.50
2019-02-08T13:41:20.298Z,18.30
2019-02-08T13:43:52.327Z,17.40
2019-02-08T13:46:24.399Z,16.80
2019-02-08T13:48:56.510Z,16.80
2019-02-08T13:51:28.572Z,16.20
2019-02-08T13:54:00.606Z,15.60
2019-02-08T13:56:33.041Z,15.40
2019-02-08T13:59:05.355Z,15.10
2019-02-08T14:01:37.416Z,15.00
2019-02-08T14:04:09.531Z,14.80
2019-02-08T14:06:41.523Z,14.30
2019-02-08T14:09:16.680Z,14.00
2019-02-08T14:11:48.742Z,14.00
2019-02-08T14:14:20.839Z,13.80
2019-02-08T14:16:52.829Z,13.80
2019-02-08T14:19:24.922Z,14.10
2019-02-08T14:21:56.911Z,14.20
2019-02-08T14:24:28.936Z,14.00
2019-02-08T14:27:08.399Z,13.40
2019-02-08T14:29:35.560Z,13.20
2019-02-08T14:32:07.625Z,12.70
2019-02-08T14:34:43.614Z,12.10
2019-02-08T14:37:13.697Z,11.90
2019-02-08T14:39:45.720Z,11.70
2019-02-08T14:42:17.748Z,11.70
2019-02-08T14:44:49.851Z,11.40
2019-02-08T14:47:21.923Z,11.00
2019-02-08T14:49:54.015Z,10.70
2019-02-08T14:52:25.991Z,10.60
2019-02-08T14:54:58.008Z,10.10
2019-02-08T14:57:29.880Z,9.70
2019-02-08T15:00:01.828Z,9.40
2019-02-08T15:02:34.214Z,9.20
2019-02-08T15:05:07.821Z,9.10
2019-02-08T15:07:39.837Z,9.00
2019-02-08T15:10:19.405Z,8.90
2019-02-08T15:12:51.407Z,8.70
2019-02-08T15:15:23.443Z,8.50
2019-02-08T15:17:55.356Z,8.40
2019-02-08T15:20:30.486Z,8.20
2019-02-08T15:23:02.600Z,8.10
2019-02-08T15:25:37.107Z,7.80
2019-02-08T15:28:09.341Z,7.70
2019-02-08T15:30:41.617Z,7.60
2019-02-08T15:33:13.529Z,7.60
2019-02-08T15:35:45.467Z,7.50
2019-02-08T15:38:17.728Z,7.50
2019-02-08T15:40:53.530Z,7.40
2019-02-08T15:43:26.366Z,7.30
2019-02-08T15:46:02.042Z,7.20
2019-02-08T15:48:34.934Z,7.20
2019-02-08T15:51:07.473Z,7.00
2019-02-08T15:53:39.480Z,7.00
2019-02-08T15:56:17.375Z,7.00
2019-02-08T15:58:49.271Z,6.90
2019-02-08T16:01:21.420Z,6.80
2019-02-08T16:03:53.330Z,6.80
2019-02-08T16:06:26.877Z,6.70
2019-02-08T16:08:59.114Z,6.70
2019-02-08T16:11:31.051Z,6.60
2019-02-08T16:14:03.018Z,6.50
2019-02-08T16:16:35.288Z,6.40
2019-02-08T16:19:07.285Z,6.30
2019-02-08T16:21:39.240Z,6.20
2019-02-08T16:24:11.247Z,6.00
2019-02-08T16:26:43.193Z,5.90
2019-02-08T16:29:15.195Z,5.70
2019-02-08T16:31:47.137Z,5.40
2019-02-08T16:34:19.546Z,5.20
2019-02-08T16:36:51.755Z,5.00
2019-02-08T16:39:23.689Z,5.00
2019-02-08T16:41:55.662Z,5.00
2019-02-08T16:44:27.699Z,4.90
2019-02-08T16:47:00.224Z,4.90
2019-02-08T16:49:32.145Z,4.90
2019-02-08T16:52:04.488Z,4.80
2019-02-08T16:54:36.429Z,4.70
2019-02-08T16:57:08.368Z,4.60
2019-02-08T16:59:40.579Z,4.60
2019-02-08T17:02:13.517Z,4.50
2019-02-08T17:04:45.452Z,4.40
2019-02-08T17:07:17.386Z,4.30
2019-02-08T17:09:49.467Z,4.10
2019-02-08T17:12:21.505Z,4.00
2019-02-08T17:14:53.566Z,4.00
2019-02-08T17:17:27.559Z,4.00
2019-02-08T17:19:59.490Z,3.90
2019-02-08T17:22:31.431Z,3.80
2019-02-08T17:25:03.470Z,3.70
2019-02-08T17:27:35.428Z,3.60
2019-02-08T17:30:12.015Z,3.50
2019-02-08T17:32:44.052Z,3.50
2019-02-08T17:35:17.700Z,3.50
2019-02-08T17:37:49.643Z,3.50
2019-02-08T17:40:24.724Z,3.50
2019-02-08T17:42:56.781Z,3.50
2019-02-08T17:45:28.858Z,3.50
2019-02-08T17:48:03.415Z,3.60
2019-02-08T17:50:35.584Z,3.60
2019-02-08T17:53:07.541Z,3.50
2019-02-08T17:55:39.582Z,3.50
2019-02-08T17:58:11.526Z,3.60
2019-02-08T18:00:47.271Z,3.60
2019-02-08T18:03:19.427Z,3.70
2019-02-08T18:05:51.329Z,3.60
2019-02-08T18:08:23.364Z,3.60
2019-02-08T18:10:55.307Z,3.50
2019-02-08T18:13:27.248Z,3.50
2019-02-08T18:15:59.193Z,3.50
2019-02-08T18:18:31.136Z,3.50
2019-02-08T18:21:10.048Z,3.50
2019-02-08T18:23:41.982Z,3.50
2019-02-08T18:26:13.930Z,3.50
2019-02-08T18:28:45.882Z,3.50
2019-02-08T18:31:17.812Z,3.50
2019-02-08T18:33:49.755Z,3.60
2019-02-08T18:36:21.951Z,3.60
2019-02-08T18:38:53.911Z,3.60
2019-02-08T18:41:26.122Z,3.60
2019-02-08T18:43:58.057Z,3.60
2019-02-08T18:46:30.041Z,3.50
2019-02-08T18:49:02.282Z,3.50
2019-02-08T18:51:34.217Z,3.50
2019-02-08T18:54:06.685Z,3.50
2019-02-08T18:56:40.900Z,3.50
2019-02-08T18:59:12.829Z,3.50
2019-02-08T19:01:44.779Z,3.50
2019-02-08T19:04:17.797Z,3.50
2019-02-08T19:06:49.719Z,3.50
2019-02-08T19:09:22.445Z,3.50
2019-02-08T19:11:54.483Z,3.50
2019-02-08T19:14:26.471Z,3.40
2019-02-08T19:16:58.570Z,3.40
2019-02-08T19:19:30.512Z,3.40
2019-02-08T19:22:02.449Z,3.40
2019-02-08T19:24:34.986Z,3.50
2019-02-08T19:27:07.864Z,3.50
2019-02-08T19:29:46.108Z,3.50
2019-02-08T19:32:19.205Z,3.40
2019-02-08T19:34:52.258Z,3.40
2019-02-08T19:37:24.316Z,3.40
2019-02-08T19:39:56.967Z,3.40
2019-02-08T19:42:36.213Z,3.40
2019-02-08T19:45:11.252Z,3.30
2019-02-08T19:47:44.434Z,3.30
2019-02-08T19:50:34.124Z,3.40
2019-02-08T19:53:07.349Z,3.40
2019-02-08T19:55:39.894Z,3.40
2019-02-08T19:58:13.048Z,3.40
2019-02-08T20:00:45.226Z,3.40
2019-02-08T20:03:17.276Z,3.40
2019-02-08T20:05:49.317Z,3.50
2019-02-08T20:08:21.251Z,3.50
2019-02-08T20:10:53.384Z,3.40
2019-02-08T20:13:25.423Z,3.40
2019-02-08T20:15:57.410Z,3.40
2019-02-08T20:18:29.692Z,3.40
2019-02-08T20:21:01.614Z,3.30
2019-02-08T20:23:33.556Z,3.30
2019-02-08T20:26:05.900Z,3.20
2019-02-08T20:28:42.324Z,3.20
2019-02-08T20:31:11.471Z,3.20
2019-02-08T20:33:43.407Z,3.10
2019-02-08T20:36:15.353Z,3.10
2019-02-08T20:38:47.297Z,3.00
2019-02-08T20:41:19.411Z,2.90
2019-02-08T20:43:51.449Z,2.90
2019-02-08T20:46:23.483Z,2.80
2019-02-08T20:48:55.527Z,2.80
2019-02-08T20:51:27.468Z,2.90
2019-02-08T20:53:59.508Z,2.90
2019-02-08T20:56:31.545Z,3.00
2019-02-08T20:59:03.587Z,3.00
2019-02-08T21:01:35.633Z,3.00
2019-02-08T21:04:08.077Z,3.10
2019-02-08T21:06:40.021Z,3.00
2019-02-08T21:09:15.251Z,3.10
2019-02-08T21:11:47.218Z,3.10
2019-02-08T21:14:19.158Z,3.10
2019-02-08T21:16:51.205Z,3.10
2019-02-08T21:19:23.144Z,3.10
2019-02-08T21:21:55.095Z,3.10
2019-02-08T21:24:27.131Z,3.10
2019-02-08T21:26:59.068Z,3.10
2019-02-08T21:29:31.104Z,3.00
2019-02-08T21:32:03.416Z,3.10
2019-02-08T21:34:35.360Z,3.10
2019-02-08T21:37:07.414Z,3.10
2019-02-08T21:39:39.356Z,3.10
2019-02-08T21:42:11.876Z,3.20
2019-02-08T21:44:43.817Z,3.20
2019-02-08T21:47:15.756Z,3.30
2019-02-08T21:49:47.686Z,3.40
2019-02-08T21:52:20.505Z,3.40
2019-02-08T21:54:52.597Z,3.50
2019-02-08T21:57:24.532Z,3.50
2019-02-08T21:59:56.462Z,3.60
2019-02-08T22:02:28.404Z,3.60
2019-02-08T22:05:00.695Z,3.60
2019-02-08T22:07:33.537Z,3.60
2019-02-08T22:10:09.040Z,3.60
2019-02-08T22:12:41.175Z,3.60
2019-02-08T22:15:17.388Z,3.70
2019-02-08T22:17:49.509Z,3.70
2019-02-08T22:20:21.565Z,3.70
2019-02-08T22:22:53.595Z,3.60
2019-02-08T22:25:26.733Z,3.60
2019-02-08T22:27:59.742Z,3.60
2019-02-08T22:30:33.566Z,3.50
2019-02-08T22:33:06.342Z,3.60
2019-02-08T22:35:38.765Z,3.60
2019-02-08T22:38:11.508Z,3.60
2019-02-08T22:40:43.449Z,3.50
2019-02-08T22:43:15.605Z,3.50
2019-02-08T22:45:47.768Z,3.40
2019-02-08T22:48:19.775Z,3.40
2019-02-08T22:50:51.709Z,3.30
2019-02-08T22:53:23.642Z,3.20
2019-02-08T22:55:55.571Z,3.20
2019-02-08T22:58:27.515Z,3.00
2019-02-08T23:01:33.503Z,2.90
2019-02-08T23:04:08.541Z,2.90
2019-02-08T23:06:45.010Z,2.80
2019-02-08T23:09:22.926Z,2.90
2019-02-08T23:11:55.025Z,2.90
2019-02-08T23:14:27.066Z,2.80
2019-02-08T23:16:59.067Z,2.80
2019-02-08T23:19:31.107Z,2.70
2019-02-08T23:22:02.999Z,2.70
2019-02-08T23:24:34.939Z,2.70
2019-02-08T23:27:06.950Z,2.70
2019-02-08T23:29:38.891Z,2.70
2019-02-08T23:32:10.998Z,2.70
2019-02-08T23:34:42.942Z,2.80
2019-02-08T23:37:14.836Z,2.90
2019-02-08T23:39:46.777Z,2.90
2019-02-08T23:42:18.738Z,2.90
2019-02-08T23:44:50.698Z,3.00
2019-02-08T23:47:22.637Z,3.00
2019-02-08T23:49:54.572Z,3.10
2019-02-08T23:52:26.470Z,3.10
2019-02-08T23:54:58.399Z,3.20
2019-02-08T23:57:30.295Z,3.20
